createdAt,value
2017-05-14T00:02:07.039Z,87.00
2017-05-14T00:04:36.814Z,88.90
2017-05-14T00:07:05.903Z,90.20
2017-05-14T00:09:34.948Z,90.50
2017-05-14T00:12:04.773Z,90.60
2017-05-14T00:14:33.852Z,90.90
2017-05-14T00:17:03.669Z,90.90
2017-05-14T00:19:33.453Z,90.90
2017-05-14T00:22:02.544Z,91.20
2017-05-14T00:24:31.583Z,90.90
2017-05-14T00:27:00.668Z,90.40
2017-05-14T00:29:30.459Z,90.50
2017-05-14T00:31:59.535Z,90.50
2017-05-14T00:34:28.584Z,90.70
2017-05-14T00:36:57.666Z,90.50
2017-05-14T00:39:27.457Z,90.60
2017-05-14T00:41:57.307Z,90.50
2017-05-14T00:44:26.407Z,89.80
2017-05-14T00:46:55.488Z,88.80
2017-05-14T00:49:25.311Z,90.20
2017-05-14T00:51:54.608Z,90.50
2017-05-14T00:54:23.685Z,90.20
2017-05-14T00:56:53.505Z,90.30
2017-05-14T00:59:23.283Z,90.10
2017-05-14T01:01:52.383Z,89.80
2017-05-14T01:04:21.436Z,90.20
2017-05-14T01:06:50.510Z,90.70
2017-05-14T01:09:20.340Z,89.90
2017-05-14T01:11:49.378Z,89.60
2017-05-14T01:14:18.460Z,87.90
2017-05-14T01:16:47.569Z,88.90
2017-05-14T01:19:16.615Z,90.50
2017-05-14T01:21:45.692Z,91.00
2017-05-14T01:24:15.471Z,91.20
2017-05-14T01:26:44.558Z,91.60
2017-05-14T01:29:13.650Z,91.40
2017-05-14T01:31:42.707Z,91.70
2017-05-14T01:34:11.784Z,91.50
2017-05-14T01:36:41.598Z,91.10
2017-05-14T01:39:10.711Z,90.60
2017-05-14T01:41:39.790Z,90.80
2017-05-14T01:44:09.575Z,90.60
2017-05-14T01:46:38.688Z,91.30
2017-05-14T01:49:07.738Z,90.90
2017-05-14T01:51:36.808Z,91.20
2017-05-14T01:54:05.893Z,91.20
2017-05-14T01:56:35.670Z,91.20
2017-05-14T01:59:04.766Z,91.30
2017-05-14T02:01:33.813Z,90.90
2017-05-14T02:04:02.903Z,91.10
2017-05-14T02:06:31.958Z,91.20
2017-05-14T02:09:01.037Z,91.70
2017-05-14T02:11:30.071Z,92.00
2017-05-14T02:13:59.896Z,91.30
2017-05-14T02:16:29.201Z,91.10
2017-05-14T02:18:58.280Z,91.20
2017-05-14T02:21:28.099Z,91.00
2017-05-14T02:23:57.879Z,91.10
2017-05-14T02:26:26.958Z,91.10
2017-05-14T02:28:56.003Z,89.20
2017-05-14T02:31:25.826Z,89.30
2017-05-14T02:33:54.875Z,91.20
2017-05-14T02:36:23.968Z,91.40
2017-05-14T02:38:53.012Z,91.40
2017-05-14T02:41:22.091Z,91.80
2017-05-14T02:43:51.908Z,93.70
2017-05-14T02:46:21.692Z,93.40
2017-05-14T02:48:50.782Z,93.10
2017-05-14T02:51:19.825Z,93.60
2017-05-14T02:53:48.905Z,93.20
2017-05-14T02:56:18.687Z,92.80
2017-05-14T02:58:47.779Z,92.40
2017-05-14T03:01:16.824Z,92.50
2017-05-14T03:03:45.903Z,92.40
2017-05-14T03:06:15.696Z,92.40
2017-05-14T03:08:44.764Z,92.40
2017-05-14T03:11:13.807Z,92.90
2017-05-14T03:13:43.631Z,93.60
2017-05-14T03:16:13.657Z,92.60
2017-05-14T03:18:42.734Z,92.30
2017-05-14T03:21:12.522Z,91.70
2017-05-14T03:23:41.861Z,91.60
2017-05-14T03:26:10.947Z,91.30
2017-05-14T03:28:40.727Z,92.00
2017-05-14T03:31:09.803Z,91.70
2017-05-14T03:33:38.883Z,91.70
2017-05-14T03:36:07.939Z,91.70
2017-05-14T03:38:37.755Z,91.30
2017-05-14T03:41:07.534Z,91.50
2017-05-14T03:43:36.628Z,91.00
2017-05-14T03:46:05.673Z,91.30
2017-05-14T03:48:34.739Z,91.60
2017-05-14T03:51:03.822Z,91.40
2017-05-14T03:53:32.867Z,91.00
2017-05-14T03:56:01.948Z,91.50
2017-05-14T03:58:31.731Z,91.00
2017-05-14T04:01:00.799Z,90.90
2017-05-14T04:03:29.892Z,90.20
2017-05-14T04:05:58.935Z,91.00
2017-05-14T04:08:28.755Z,91.40
2017-05-14T04:10:58.536Z,90.20
2017-05-14T04:13:27.610Z,90.50
2017-05-14T04:15:56.668Z,90.80
2017-05-14T04:18:25.753Z,91.30
2017-05-14T04:20:55.534Z,91.00
2017-05-14T04:23:24.612Z,90.50
2017-05-14T04:25:53.692Z,90.50
2017-05-14T04:28:22.741Z,90.10
2017-05-14T04:30:52.572Z,90.60
2017-05-14T04:33:22.347Z,90.80
2017-05-14T04:35:51.469Z,89.70
2017-05-14T04:38:21.285Z,90.10
2017-05-14T04:40:51.061Z,90.50
2017-05-14T04:43:20.410Z,90.10
2017-05-14T04:45:49.700Z,90.70
2017-05-14T04:48:18.845Z,91.50
2017-05-14T04:50:47.888Z,91.10
2017-05-14T04:53:17.663Z,90.70
2017-05-14T04:55:46.783Z,90.40
2017-05-14T04:58:15.816Z,90.60
2017-05-14T05:00:44.886Z,90.40
2017-05-14T05:03:14.699Z,90.70
2017-05-14T05:05:44.484Z,90.60
2017-05-14T05:08:13.572Z,90.20
2017-05-14T05:10:42.603Z,91.00
2017-05-14T05:13:12.432Z,86.00
2017-05-14T05:15:42.220Z,85.80
2017-05-14T05:18:11.324Z,90.30
2017-05-14T05:20:41.107Z,85.60
2017-05-14T05:23:10.776Z,91.20
2017-05-14T05:25:39.891Z,90.90
2017-05-14T05:28:10.027Z,90.30
2017-05-14T05:30:39.066Z,91.70
2017-05-14T05:33:08.964Z,92.00
2017-05-14T05:35:38.003Z,92.20
2017-05-14T05:38:07.096Z,92.20
2017-05-14T05:40:36.143Z,92.10
2017-05-14T05:43:05.475Z,91.90
2017-05-14T05:45:34.565Z,92.30
2017-05-14T05:48:04.343Z,91.90
2017-05-14T05:50:33.439Z,91.80
2017-05-14T05:53:02.481Z,91.90
2017-05-14T05:55:31.577Z,91.90
2017-05-14T05:58:00.620Z,91.30
2017-05-14T06:00:29.710Z,91.20
2017-05-14T06:02:58.797Z,91.40
2017-05-14T06:05:27.839Z,91.50
2017-05-14T06:07:57.667Z,91.70
2017-05-14T06:10:26.709Z,91.30
2017-05-14T06:12:55.800Z,91.70
2017-05-14T06:15:24.894Z,91.40
2017-05-14T06:17:53.940Z,91.10
2017-05-14T06:20:23.757Z,91.10
2017-05-14T06:22:53.607Z,91.30
2017-05-14T06:25:22.656Z,92.10
2017-05-14T06:27:52.747Z,92.10
2017-05-14T06:30:21.791Z,91.60
2017-05-14T06:32:50.874Z,91.20
2017-05-14T06:35:19.926Z,90.20
2017-05-14T06:37:49.004Z,90.60
2017-05-14T06:40:18.079Z,90.30
2017-05-14T06:42:47.120Z,90.50
2017-05-14T06:45:16.207Z,90.30
2017-05-14T06:47:45.251Z,90.50
2017-05-14T06:50:14.352Z,90.90
2017-05-14T06:52:43.755Z,91.20
2017-05-14T06:55:12.815Z,90.70
2017-05-14T06:57:42.660Z,90.70
2017-05-14T07:00:11.698Z,90.50
2017-05-14T07:02:40.795Z,90.30
2017-05-14T07:05:09.841Z,90.10
2017-05-14T07:07:39.658Z,89.90
2017-05-14T07:10:08.704Z,89.60
2017-05-14T07:12:37.775Z,89.40
2017-05-14T07:15:06.818Z,89.40
2017-05-14T07:17:36.652Z,86.80
2017-05-14T07:20:06.676Z,85.70
2017-05-14T07:22:35.772Z,85.30
2017-05-14T07:25:04.812Z,85.80
2017-05-14T07:27:33.909Z,84.50
2017-05-14T07:30:03.024Z,83.30
2017-05-14T07:32:32.116Z,82.10
2017-05-14T07:35:01.160Z,79.80
2017-05-14T07:37:30.249Z,81.00
2017-05-14T07:39:59.341Z,81.00
2017-05-14T07:42:28.378Z,80.60
2017-05-14T07:44:57.458Z,80.90
2017-05-14T07:47:26.760Z,80.70
2017-05-14T07:49:55.811Z,81.30
2017-05-14T07:52:25.636Z,80.00
2017-05-14T07:54:54.683Z,78.90
2017-05-14T07:57:23.982Z,79.10
2017-05-14T07:59:53.071Z,77.70
2017-05-14T08:02:22.122Z,76.90
2017-05-14T08:04:51.979Z,76.40
2017-05-14T08:07:21.033Z,75.50
2017-05-14T08:09:50.845Z,73.70
2017-05-14T08:12:20.675Z,74.20
2017-05-14T08:14:49.951Z,73.50
2017-05-14T08:17:19.754Z,71.20
2017-05-14T08:19:49.551Z,71.40
2017-05-14T08:22:19.298Z,71.00
2017-05-14T08:24:48.356Z,70.30
2017-05-14T08:27:17.439Z,70.90
2017-05-14T08:29:46.522Z,68.00
2017-05-14T08:32:15.559Z,68.60
2017-05-14T08:34:45.705Z,62.70
2017-05-14T08:37:14.754Z,67.40
2017-05-14T08:39:43.829Z,68.00
2017-05-14T08:42:12.869Z,68.00
2017-05-14T08:44:42.687Z,68.20
2017-05-14T08:47:12.485Z,68.40
2017-05-14T08:49:41.575Z,65.60
2017-05-14T08:52:17.011Z,64.10
2017-05-14T08:54:53.521Z,62.50
2017-05-14T08:57:24.544Z,63.80
2017-05-14T09:00:02.014Z,63.70
2017-05-14T09:02:35.928Z,62.20
2017-05-14T09:05:19.048Z,62.60
2017-05-14T09:07:57.483Z,63.20
2017-05-14T09:10:30.240Z,66.40
2017-05-14T09:13:03.227Z,61.30
2017-05-14T09:15:35.987Z,61.20
2017-05-14T09:18:10.349Z,62.10
2017-05-14T09:20:48.636Z,58.90
2017-05-14T09:23:21.533Z,59.60
2017-05-14T09:25:53.159Z,60.00
2017-05-14T09:28:24.212Z,64.90
2017-05-14T09:30:53.993Z,62.50
2017-05-14T09:33:23.312Z,58.10
2017-05-14T09:35:52.450Z,58.70
2017-05-14T09:38:21.546Z,59.50
2017-05-14T09:40:51.369Z,60.00
2017-05-14T09:43:20.844Z,59.40
2017-05-14T09:45:49.921Z,57.60
2017-05-14T09:48:19.482Z,57.30
2017-05-14T09:50:49.781Z,58.90
2017-05-14T09:53:19.692Z,59.40
2017-05-14T09:55:48.769Z,58.90
2017-05-14T09:58:17.834Z,57.80
2017-05-14T10:00:46.915Z,57.60
2017-05-14T10:03:16.713Z,58.90
2017-05-14T10:05:47.013Z,63.60
2017-05-14T10:08:18.206Z,58.30
2017-05-14T10:10:50.221Z,58.20
2017-05-14T10:13:19.468Z,58.70
2017-05-14T10:15:48.546Z,57.30
2017-05-14T10:18:18.381Z,58.30
2017-05-14T10:20:47.416Z,57.90
2017-05-14T10:23:16.495Z,58.20
2017-05-14T10:25:45.710Z,57.90
2017-05-14T10:28:14.843Z,59.40
2017-05-14T10:30:44.908Z,57.90
2017-05-14T10:33:14.003Z,59.60
2017-05-14T10:35:43.050Z,57.30
2017-05-14T10:38:12.874Z,58.50
2017-05-14T10:40:42.671Z,59.30
2017-05-14T10:43:11.763Z,59.60
2017-05-14T10:45:40.817Z,59.80
2017-05-14T10:48:11.111Z,59.90
2017-05-14T10:50:40.163Z,59.50
2017-05-14T10:53:09.296Z,58.70
2017-05-14T10:55:39.144Z,58.70
2017-05-14T10:58:09.576Z,58.60
2017-05-14T11:00:40.070Z,57.90
2017-05-14T11:03:09.261Z,58.00
2017-05-14T11:05:39.087Z,57.70
2017-05-14T11:08:10.320Z,58.60
2017-05-14T11:10:39.535Z,58.20
2017-05-14T11:13:09.110Z,58.50
2017-05-14T11:15:38.219Z,57.70
2017-05-14T11:18:08.013Z,58.90
2017-05-14T11:20:37.085Z,56.10
2017-05-14T11:23:06.129Z,57.40
2017-05-14T11:25:35.349Z,56.40
2017-05-14T11:28:04.531Z,56.30
2017-05-14T11:30:33.644Z,55.70
2017-05-14T11:33:02.671Z,56.50
2017-05-14T11:35:32.023Z,56.90
2017-05-14T11:38:01.863Z,57.70
2017-05-14T11:40:30.894Z,56.60
2017-05-14T11:42:59.967Z,57.50
2017-05-14T11:45:29.017Z,56.00
2017-05-14T11:47:58.815Z,54.80
2017-05-14T11:50:28.449Z,54.90
2017-05-14T11:52:57.780Z,54.60
2017-05-14T11:55:27.075Z,55.20
2017-05-14T11:57:56.495Z,54.20
2017-05-14T12:00:25.953Z,53.20
2017-05-14T12:02:55.032Z,52.20
2017-05-14T12:05:24.819Z,54.30
2017-05-14T12:07:53.887Z,53.80
2017-05-14T12:10:22.928Z,53.90
2017-05-14T12:12:52.003Z,53.90
2017-05-14T12:15:21.039Z,54.30
2017-05-14T12:17:50.869Z,55.00
2017-05-14T12:20:19.912Z,54.60
2017-05-14T12:22:49.431Z,55.30
2017-05-14T12:25:18.713Z,55.20
2017-05-14T12:27:48.770Z,55.30
2017-05-14T12:30:18.793Z,52.70
2017-05-14T12:32:48.183Z,55.50
2017-05-14T12:35:17.807Z,56.20
2017-05-14T12:37:46.892Z,55.80
2017-05-14T12:40:16.669Z,55.80
2017-05-14T12:42:47.421Z,56.90
2017-05-14T12:45:16.484Z,57.10
2017-05-14T12:47:45.521Z,57.00
2017-05-14T12:50:15.669Z,57.50
2017-05-14T12:52:45.103Z,57.60
2017-05-14T12:55:14.175Z,58.10
2017-05-14T12:57:43.448Z,58.10
2017-05-14T13:00:13.271Z,58.60
2017-05-14T13:02:43.070Z,58.90
2017-05-14T13:05:12.884Z,58.60
2017-05-14T13:07:42.975Z,58.50
2017-05-14T13:10:12.062Z,58.20
2017-05-14T13:12:41.095Z,58.30
2017-05-14T13:15:10.924Z,57.60
2017-05-14T13:17:40.411Z,59.10
2017-05-14T13:20:11.577Z,57.90
2017-05-14T13:22:40.766Z,57.20
2017-05-14T13:25:10.298Z,57.40
2017-05-14T13:27:39.339Z,58.00
2017-05-14T13:30:09.372Z,58.10
2017-05-14T13:32:40.373Z,57.30
2017-05-14T13:35:09.784Z,57.20
2017-05-14T13:37:40.067Z,57.80
2017-05-14T13:40:09.541Z,58.40
2017-05-14T13:42:38.699Z,59.50
2017-05-14T13:45:10.572Z,60.20
2017-05-14T13:47:42.103Z,60.70
2017-05-14T13:50:13.005Z,61.20
2017-05-14T13:52:42.513Z,61.60
2017-05-14T13:55:12.697Z,62.00
2017-05-14T13:57:41.970Z,62.30
2017-05-14T14:00:11.308Z,63.40
2017-05-14T14:02:40.631Z,62.00
2017-05-14T14:05:11.014Z,62.20
2017-05-14T14:07:40.319Z,64.20
2017-05-14T14:10:09.757Z,66.80
2017-05-14T14:12:39.283Z,64.70
2017-05-14T14:15:09.324Z,68.00
2017-05-14T14:17:38.956Z,70.70
2017-05-14T14:20:08.141Z,70.00
2017-05-14T14:22:37.598Z,72.50
2017-05-14T14:25:07.002Z,71.80
2017-05-14T14:27:37.037Z,71.40
2017-05-14T14:30:06.263Z,75.30
2017-05-14T14:32:35.603Z,77.90
2017-05-14T14:35:04.931Z,75.50
2017-05-14T14:37:34.163Z,76.10
2017-05-14T14:40:03.581Z,77.40
2017-05-14T14:42:33.472Z,75.00
2017-05-14T14:45:02.828Z,74.70
2017-05-14T14:47:32.740Z,75.10
2017-05-14T14:50:02.790Z,79.80
2017-05-14T14:52:32.060Z,77.40
2017-05-14T14:55:01.398Z,77.70
2017-05-14T14:57:30.518Z,78.00
2017-05-14T15:00:00.566Z,77.00
2017-05-14T15:02:29.867Z,76.20
2017-05-14T15:04:59.109Z,75.80
2017-05-14T15:07:28.282Z,77.10
2017-05-14T15:09:57.458Z,74.00
2017-05-14T15:12:27.400Z,73.90
2017-05-14T15:14:56.716Z,73.50
2017-05-14T15:17:25.884Z,75.30
2017-05-14T15:19:55.090Z,75.10
2017-05-14T15:22:24.424Z,75.10
2017-05-14T15:24:53.780Z,73.80
2017-05-14T15:27:23.043Z,72.80
2017-05-14T15:29:53.096Z,75.20
2017-05-14T15:32:22.508Z,73.40
2017-05-14T15:34:51.837Z,73.50
2017-05-14T15:37:21.026Z,74.90
2017-05-14T15:39:50.363Z,74.20
2017-05-14T15:42:20.051Z,75.10
2017-05-14T15:44:49.575Z,75.10
2017-05-14T15:47:19.626Z,74.10
2017-05-14T15:49:49.828Z,72.60
2017-05-14T15:52:19.188Z,72.70
2017-05-14T15:54:49.016Z,74.50
2017-05-14T15:57:18.060Z,74.10
2017-05-14T15:59:47.123Z,75.40
2017-05-14T16:02:16.155Z,75.50
2017-05-14T16:04:45.197Z,75.40
2017-05-14T16:07:14.228Z,75.90
2017-05-14T16:09:43.260Z,74.20
2017-05-14T16:12:13.045Z,73.30
2017-05-14T16:14:42.103Z,73.20
2017-05-14T16:17:11.135Z,73.70
2017-05-14T16:19:40.476Z,73.50
2017-05-14T16:22:09.565Z,75.10
2017-05-14T16:24:39.361Z,74.30
2017-05-14T16:27:09.506Z,74.40
2017-05-14T16:29:38.557Z,74.10
2017-05-14T16:32:07.632Z,74.40
2017-05-14T16:34:36.681Z,74.60
2017-05-14T16:37:06.507Z,75.00
2017-05-14T16:39:35.545Z,74.40
2017-05-14T16:42:04.637Z,70.80
2017-05-14T16:44:33.681Z,70.40
2017-05-14T16:47:03.488Z,70.30
2017-05-14T16:49:33.266Z,70.70
2017-05-14T16:52:02.372Z,69.80
2017-05-14T16:54:31.432Z,69.50
2017-05-14T16:57:00.499Z,69.30
2017-05-14T16:59:29.552Z,70.00
2017-05-14T17:01:58.626Z,70.60
2017-05-14T17:04:27.659Z,69.60
2017-05-14T17:06:56.728Z,70.00
2017-05-14T17:09:25.812Z,70.00
2017-05-14T17:11:54.850Z,67.20
2017-05-14T17:14:24.656Z,68.40
2017-05-14T17:16:53.705Z,66.80
2017-05-14T17:19:22.784Z,67.00
2017-05-14T17:21:51.857Z,67.40
2017-05-14T17:24:21.637Z,59.30
2017-05-14T17:26:50.980Z,49.50
2017-05-14T17:29:20.482Z,44.00
2017-05-14T17:31:49.589Z,41.00
2017-05-14T17:34:18.622Z,44.00
2017-05-14T17:36:47.978Z,47.90
2017-05-14T17:39:17.764Z,51.70
2017-05-14T17:41:47.182Z,52.90
2017-05-14T17:44:16.971Z,54.90
2017-05-14T17:46:46.046Z,57.00
2017-05-14T17:49:15.076Z,58.40
2017-05-14T17:51:44.145Z,59.40
2017-05-14T17:54:13.226Z,60.90
2017-05-14T17:56:42.601Z,59.90
2017-05-14T17:59:11.695Z,61.30
2017-05-14T18:01:40.775Z,63.20
2017-05-14T18:04:10.803Z,60.80
2017-05-14T18:06:39.876Z,60.70
2017-05-14T18:09:08.919Z,59.20
2017-05-14T18:11:38.012Z,56.20
2017-05-14T18:14:07.286Z,54.00
2017-05-14T18:16:36.373Z,52.10
2017-05-14T18:19:06.151Z,50.90
2017-05-14T18:21:35.239Z,49.00
2017-05-14T18:24:04.267Z,49.10
2017-05-14T18:26:33.416Z,51.80
2017-05-14T18:29:02.463Z,54.90
2017-05-14T18:31:32.287Z,57.10
2017-05-14T18:34:02.069Z,58.80
2017-05-14T18:36:31.165Z,60.30
2017-05-14T18:39:00.196Z,61.30
2017-05-14T18:41:29.255Z,62.80
2017-05-14T18:43:58.329Z,63.40
2017-05-14T18:46:27.377Z,64.90
2017-05-14T18:48:57.193Z,65.40
2017-05-14T18:51:26.219Z,65.60
2017-05-14T18:53:55.291Z,66.50
2017-05-14T18:56:24.335Z,67.70
2017-05-14T18:58:53.423Z,68.60
2017-05-14T19:01:22.468Z,69.60
2017-05-14T19:03:51.552Z,69.70
2017-05-14T19:06:21.567Z,70.20
2017-05-14T19:08:51.388Z,69.80
2017-05-14T19:11:21.412Z,70.80
2017-05-14T19:13:50.498Z,71.30
2017-05-14T19:16:20.277Z,71.80
2017-05-14T19:18:49.356Z,72.30
2017-05-14T19:21:18.391Z,72.90
2017-05-14T19:23:48.216Z,73.40
2017-05-14T19:26:17.999Z,73.60
2017-05-14T19:28:47.337Z,74.10
2017-05-14T19:31:17.111Z,75.00
2017-05-14T19:33:46.184Z,75.30
2017-05-14T19:36:15.240Z,76.20
2017-05-14T19:38:44.324Z,75.70
2017-05-14T19:41:14.136Z,76.50
2017-05-14T19:43:43.921Z,75.80
2017-05-14T19:46:13.018Z,77.10
2017-05-14T19:48:42.360Z,77.80
2017-05-14T19:51:11.464Z,77.70
2017-05-14T19:53:40.514Z,77.40
2017-05-14T19:56:09.592Z,78.40
2017-05-14T19:58:38.948Z,77.10
2017-05-14T20:01:08.229Z,79.50
2017-05-14T20:03:38.048Z,79.80
2017-05-14T20:06:07.838Z,80.20
2017-05-14T20:08:36.934Z,79.70
2017-05-14T20:11:06.010Z,80.40
2017-05-14T20:13:35.092Z,80.10
2017-05-14T20:16:04.361Z,80.60
2017-05-14T20:18:33.414Z,80.20
2017-05-14T20:21:02.501Z,80.70
2017-05-14T20:23:31.549Z,81.30
2017-05-14T20:26:00.625Z,81.10
2017-05-14T20:28:30.410Z,80.90
2017-05-14T20:30:59.504Z,81.40
2017-05-14T20:33:28.965Z,78.10
2017-05-14T20:35:58.295Z,78.30
2017-05-14T20:38:28.155Z,79.60
2017-05-14T20:40:57.990Z,80.20
2017-05-14T20:43:27.044Z,80.60
2017-05-14T20:45:56.107Z,81.30
2017-05-14T20:48:25.193Z,81.70
2017-05-14T20:50:54.231Z,82.30
2017-05-14T20:53:23.285Z,82.70
2017-05-14T20:55:52.362Z,82.70
2017-05-14T20:58:21.405Z,83.10
2017-05-14T21:00:50.479Z,83.40
2017-05-14T21:03:19.530Z,83.70
2017-05-14T21:05:49.351Z,83.60
2017-05-14T21:08:18.400Z,83.80
2017-05-14T21:10:47.529Z,84.00
2017-05-14T21:13:17.316Z,83.30
2017-05-14T21:15:46.400Z,82.20
2017-05-14T21:18:15.479Z,81.80
2017-05-14T21:20:44.535Z,83.30
2017-05-14T21:23:13.623Z,82.90
2017-05-14T21:25:43.424Z,84.00
2017-05-14T21:28:12.485Z,85.00
2017-05-14T21:30:41.574Z,85.30
2017-05-14T21:33:10.624Z,85.60
2017-05-14T21:35:40.456Z,85.80
2017-05-14T21:38:09.498Z,85.70
2017-05-14T21:40:38.588Z,85.90
2017-05-14T21:43:07.632Z,86.30
2017-05-14T21:45:36.714Z,86.40
2017-05-14T21:48:06.559Z,86.40
2017-05-14T21:50:35.594Z,86.50
2017-05-14T21:53:04.755Z,86.40
2017-05-14T21:55:33.799Z,86.40
2017-05-14T21:58:02.881Z,85.20
2017-05-14T22:00:31.927Z,86.50
2017-05-14T22:03:01.004Z,86.70
2017-05-14T22:05:30.828Z,86.60
2017-05-14T22:08:00.617Z,85.80
2017-05-14T22:10:29.952Z,86.50
2017-05-14T22:12:58.995Z,86.90
2017-05-14T22:15:28.076Z,86.60
2017-05-14T22:17:57.449Z,87.40
2017-05-14T22:20:26.531Z,87.70
2017-05-14T22:22:56.310Z,87.70
2017-05-14T22:25:25.395Z,87.70
2017-05-14T22:27:54.443Z,88.00
2017-05-14T22:30:23.511Z,88.20
2017-05-14T22:32:52.588Z,87.40
2017-05-14T22:35:21.633Z,88.80
2017-05-14T22:37:50.712Z,89.00
2017-05-14T22:40:20.500Z,88.60
2017-05-14T22:42:50.308Z,88.20
2017-05-14T22:45:19.375Z,88.10
2017-05-14T22:47:48.421Z,87.00
2017-05-14T22:50:18.238Z,85.80
2017-05-14T22:52:48.034Z,86.70
2017-05-14T22:55:17.132Z,87.50
2017-05-14T22:57:47.054Z,85.10
2017-05-14T23:00:16.135Z,85.30
2017-05-14T23:02:45.200Z,88.10
2017-05-14T23:05:14.296Z,88.00
2017-05-14T23:07:43.358Z,87.00
2017-05-14T23:10:13.180Z,88.80
2017-05-14T23:12:42.219Z,89.30
2017-05-14T23:15:11.325Z,89.50
2017-05-14T23:17:41.138Z,90.00
2017-05-14T23:20:10.487Z,89.70
2017-05-14T23:22:39.537Z,86.10
2017-05-14T23:25:08.613Z,89.80
2017-05-14T23:27:37.741Z,89.90
2017-05-14T23:30:06.760Z,90.00
2017-05-14T23:32:36.908Z,88.70
2017-05-14T23:35:06.291Z,90.50
2017-05-14T23:37:35.390Z,91.30
2017-05-14T23:40:04.436Z,91.40
2017-05-14T23:42:33.517Z,90.10
2017-05-14T23:45:02.608Z,91.20
2017-05-14T23:47:31.645Z,90.60
2017-05-14T23:50:01.456Z,90.00
2017-05-14T23:52:31.296Z,89.70
2017-05-14T23:55:00.348Z,88.30
2017-05-14T23:57:29.414Z,90.20
2017-05-14T23:59:58.507Z,85.20
